Time,TemperatureF,DewpointF,PressureIn,WindDirection,WindDirectionDegrees,WindSpeedMPH,WindSpeedGustMPH,Humidity,HourlyPrecipIn,Conditions,Clouds,dailyrainin,SoftwareType,DateUTC
2013-01-25 00:01:00,10.7,4.5,29.70,NNW,338,8.2,8.2,76,0.00,,,0.00,WUHU216HW,2013-01-25 05:01:00,
2013-01-25 00:10:00,10.7,4.5,29.70,NNW,338,8.2,8.2,76,0.00,,,0.00,WUHU216HW,2013-01-25 05:10:00,
2013-01-25 00:15:00,10.9,4.7,29.70,NNW,338,7.1,8.5,76,0.00,,,0.00,WUHU216HW,2013-01-25 05:15:00,
2013-01-25 00:20:00,10.7,4.5,29.70,SSW,203,7.1,10.5,76,0.00,,,0.00,WUHU216HW,2013-01-25 05:20:00,
2013-01-25 00:25:00,10.7,4.5,29.69,NNW,338,10.0,10.5,76,0.00,,,0.00,WUHU216HW,2013-01-25 05:25:00,
2013-01-25 00:29:00,10.7,4.5,29.69,NNW,338,11.4,11.4,76,0.00,,,0.00,WUHU216HW,2013-01-25 05:29:00,
2013-01-25 15:37:00,10.7,4.5,29.69,NNW,338,11.4,11.4,76,0.00,,,0.00,WUHU216HW,2013-01-25 20:37:00,
2013-01-25 15:42:00,17.7,6.6,29.69,NNE,23,0.0,11.4,61,0.00,,,0.00,WUHU216HW,2013-01-25 20:42:00,
2013-01-25 15:47:00,17.4,6.3,29.69,NNE,23,0.0,4.0,61,0.00,,,0.00,WUHU216HW,2013-01-25 20:47:00,
2013-01-25 15:52:00,17.4,6.2,29.40,NE,45,7.8,7.8,61,0.00,,,0.00,WUHU216HW,2013-01-25 20:52:00,
2013-01-25 15:57:00,16.7,6.2,29.40,NE,45,3.1,7.8,63,0.00,,,0.00,WUHU216HW,2013-01-25 20:57:00,
2013-01-25 16:02:00,16.3,6.1,29.39,NE,45,0.0,7.8,64,0.00,,,0.00,WUHU216HW,2013-01-25 21:02:00,
2013-01-25 16:07:00,16.3,6.5,29.39,NE,45,6.0,6.0,65,0.00,,,0.00,WUHU216HW,2013-01-25 21:07:00,
2013-01-25 16:12:00,15.6,6.5,29.39,NE,45,5.3,6.0,67,0.00,,,0.00,WUHU216HW,2013-01-25 21:12:00,
2013-01-25 16:17:00,15.6,6.8,29.38,NE,45,3.5,6.0,68,0.00,,,0.00,WUHU216HW,2013-01-25 21:17:00,
2013-01-25 16:22:00,15.4,7.0,29.38,NE,45,2.9,3.5,69,0.00,,,0.00,WUHU216HW,2013-01-25 21:22:00,
2013-01-25 16:27:00,15.2,7.2,29.38,NE,45,0.4,4.0,70,0.00,,,0.00,WUHU216HW,2013-01-25 21:27:00,
2013-01-25 16:32:00,15.2,7.2,29.37,NE,45,0.0,4.0,70,0.00,,,0.00,WUHU216HW,2013-01-25 21:32:00,
2013-01-25 16:37:00,15.2,7.2,29.37,NE,45,1.7,1.7,70,0.00,,,0.00,WUHU216HW,2013-01-25 21:37:00,
2013-01-25 16:42:00,15.2,7.2,29.37,NE,45,1.7,1.7,70,0.00,,,0.00,WUHU216HW,2013-01-25 21:42:00,